createdAt,value
2019-03-17T00:01:57.924Z,86.30
2019-03-17T00:04:31.342Z,86.40
2019-03-17T00:06:52.792Z,86.50
2019-03-17T00:09:19.219Z,86.40
2019-03-17T00:11:45.686Z,86.10
2019-03-17T00:14:12.097Z,86.20
2019-03-17T00:16:38.557Z,86.10
2019-03-17T00:19:05.000Z,86.20
2019-03-17T00:21:31.428Z,86.30
2019-03-17T00:23:57.864Z,86.40
2019-03-17T00:26:24.424Z,86.30
2019-03-17T00:28:50.871Z,86.30
2019-03-17T00:31:23.629Z,86.30
2019-03-17T00:33:45.691Z,86.70
2019-03-17T00:36:12.127Z,86.70
2019-03-17T00:38:38.699Z,86.40
2019-03-17T00:41:05.131Z,86.60
2019-03-17T00:43:31.604Z,86.50
2019-03-17T00:45:58.064Z,86.50
2019-03-17T00:48:24.517Z,86.30
2019-03-17T00:50:50.996Z,86.40
2019-03-17T00:53:17.429Z,86.30
2019-03-17T00:55:43.884Z,85.90
2019-03-17T00:58:11.318Z,86.00
2019-03-17T01:00:37.757Z,86.20
2019-03-17T01:03:04.203Z,85.50
2019-03-17T01:05:31.459Z,85.30
2019-03-17T01:07:59.613Z,85.10
2019-03-17T01:10:26.196Z,85.10
2019-03-17T01:12:52.631Z,85.30
2019-03-17T01:15:19.178Z,85.30
2019-03-17T01:17:45.623Z,85.10
2019-03-17T01:20:12.198Z,85.60
2019-03-17T01:22:38.649Z,85.40
2019-03-17T01:25:07.321Z,85.80
2019-03-17T01:27:33.742Z,85.70
2019-03-17T01:30:00.388Z,85.70
2019-03-17T01:32:26.849Z,85.90
2019-03-17T01:34:53.290Z,85.80
2019-03-17T01:37:19.721Z,85.60
2019-03-17T01:39:46.185Z,85.30
2019-03-17T01:42:12.774Z,85.30
2019-03-17T01:44:40.260Z,85.20
2019-03-17T01:47:06.920Z,85.40
2019-03-17T01:49:33.358Z,85.70
2019-03-17T01:51:59.825Z,85.90
2019-03-17T01:54:26.262Z,86.00
2019-03-17T01:56:53.005Z,85.90
2019-03-17T01:59:19.459Z,85.70
2019-03-17T02:01:45.904Z,85.20
2019-03-17T02:04:12.354Z,85.00
2019-03-17T02:06:38.797Z,85.20
2019-03-17T02:09:06.753Z,85.40
2019-03-17T02:11:33.203Z,85.40
2019-03-17T02:13:59.676Z,85.50
2019-03-17T02:16:26.132Z,85.60
2019-03-17T02:18:52.563Z,85.70
2019-03-17T02:21:20.888Z,85.60
2019-03-17T02:23:47.358Z,85.70
2019-03-17T02:26:13.777Z,85.70
2019-03-17T02:28:40.221Z,85.70
2019-03-17T02:31:06.681Z,86.20
2019-03-17T02:33:33.094Z,85.90
2019-03-17T02:35:59.550Z,85.60
2019-03-17T02:38:25.980Z,86.00
2019-03-17T02:40:52.446Z,85.70
2019-03-17T02:43:19.005Z,86.20
2019-03-17T02:45:45.478Z,86.40
2019-03-17T02:48:11.923Z,86.50
2019-03-17T02:50:38.378Z,86.60
2019-03-17T02:53:04.862Z,86.70
2019-03-17T02:55:31.284Z,86.80
2019-03-17T02:57:58.069Z,87.00
2019-03-17T03:00:24.630Z,86.90
2019-03-17T03:02:51.053Z,87.20
2019-03-17T03:05:17.496Z,87.30
2019-03-17T03:07:43.954Z,87.20
2019-03-17T03:10:10.421Z,87.60
2019-03-17T03:12:36.928Z,87.60
2019-03-17T03:15:05.947Z,87.80
2019-03-17T03:17:32.536Z,88.60
2019-03-17T03:19:58.997Z,88.40
2019-03-17T03:22:25.463Z,88.10
2019-03-17T03:24:51.879Z,87.90
2019-03-17T03:27:18.327Z,88.10
2019-03-17T03:29:44.789Z,88.00
2019-03-17T03:32:11.253Z,88.20
2019-03-17T03:34:37.810Z,88.40
2019-03-17T03:37:04.332Z,88.50
2019-03-17T03:39:30.755Z,88.50
2019-03-17T03:41:57.206Z,88.60
2019-03-17T03:44:23.680Z,88.90
2019-03-17T03:46:50.096Z,88.70
2019-03-17T03:49:16.664Z,88.70
2019-03-17T03:51:43.183Z,89.00
2019-03-17T03:54:09.590Z,89.00
2019-03-17T03:56:36.064Z,89.20
2019-03-17T03:59:02.520Z,89.20
2019-03-17T04:01:28.943Z,89.20
2019-03-17T04:03:55.386Z,88.90
2019-03-17T04:06:26.702Z,89.20
2019-03-17T04:08:50.080Z,89.20
2019-03-17T04:11:16.534Z,89.30
2019-03-17T04:13:42.976Z,89.10
2019-03-17T04:16:09.414Z,89.10
2019-03-17T04:18:35.885Z,89.60
2019-03-17T04:21:02.318Z,89.90
2019-03-17T04:23:28.767Z,89.60
2019-03-17T04:25:55.185Z,89.50
2019-03-17T04:28:21.642Z,89.60
2019-03-17T04:30:48.072Z,89.50
2019-03-17T04:33:14.511Z,89.50
2019-03-17T04:35:40.982Z,89.60
2019-03-17T04:38:07.433Z,89.80
2019-03-17T04:40:33.882Z,90.00
2019-03-17T04:43:00.309Z,89.90
2019-03-17T04:45:26.774Z,90.00
2019-03-17T04:47:53.223Z,90.00
2019-03-17T04:50:19.666Z,90.10
2019-03-17T04:52:46.132Z,90.10
2019-03-17T04:55:12.594Z,90.10
2019-03-17T04:57:39.037Z,90.00
2019-03-17T05:00:08.855Z,90.10
2019-03-17T05:02:35.289Z,90.10
2019-03-17T05:05:01.833Z,90.00
2019-03-17T05:07:28.259Z,90.10
2019-03-17T05:09:54.713Z,90.10
2019-03-17T05:12:21.170Z,90.20
2019-03-17T05:14:47.573Z,90.10
2019-03-17T05:17:14.021Z,90.10
2019-03-17T05:19:40.458Z,90.10
2019-03-17T05:22:06.920Z,90.10
2019-03-17T05:24:33.387Z,90.10
2019-03-17T05:26:59.850Z,90.20
2019-03-17T05:29:26.307Z,90.10
2019-03-17T05:31:52.770Z,90.10
2019-03-17T05:34:19.225Z,90.10
2019-03-17T05:36:45.638Z,90.10
2019-03-17T05:39:12.095Z,90.10
2019-03-17T05:41:38.653Z,90.10
2019-03-17T05:44:05.104Z,90.00
2019-03-17T05:46:31.564Z,90.00
2019-03-17T05:48:58.038Z,90.00
2019-03-17T05:51:24.451Z,90.10
2019-03-17T05:53:50.980Z,90.10
2019-03-17T05:56:17.492Z,90.10
2019-03-17T05:58:43.910Z,89.80
2019-03-17T06:01:10.366Z,89.90
2019-03-17T06:03:36.813Z,89.70
2019-03-17T06:06:03.283Z,89.50
2019-03-17T06:08:29.739Z,89.70
2019-03-17T06:10:56.189Z,89.90
2019-03-17T06:13:22.615Z,89.60
2019-03-17T06:15:49.075Z,89.80
2019-03-17T06:18:15.523Z,90.00
2019-03-17T06:20:41.976Z,89.90
2019-03-17T06:23:08.445Z,90.10
2019-03-17T06:25:34.904Z,89.90
2019-03-17T06:28:01.360Z,90.00
2019-03-17T06:30:27.935Z,89.70
2019-03-17T06:32:54.370Z,89.80
2019-03-17T06:35:20.831Z,89.50
2019-03-17T06:37:47.250Z,89.40
2019-03-17T06:40:13.685Z,89.80
2019-03-17T06:42:40.116Z,89.60
2019-03-17T06:45:08.372Z,90.00
2019-03-17T06:47:34.825Z,89.20
2019-03-17T06:50:01.661Z,88.50
2019-03-17T06:52:28.157Z,88.70
2019-03-17T06:54:54.610Z,88.10
2019-03-17T06:57:21.067Z,88.90
2019-03-17T06:59:47.978Z,88.40
2019-03-17T07:02:14.430Z,87.70
2019-03-17T07:04:40.880Z,87.50
2019-03-17T07:07:07.398Z,87.00
2019-03-17T07:09:33.812Z,87.10
2019-03-17T07:12:00.290Z,87.20
2019-03-17T07:14:26.997Z,86.70
2019-03-17T07:16:53.517Z,86.70
2019-03-17T07:19:19.959Z,87.00
2019-03-17T07:21:46.443Z,86.10
2019-03-17T07:24:12.889Z,87.40
2019-03-17T07:26:39.378Z,86.70
2019-03-17T07:29:05.822Z,86.30
2019-03-17T07:31:32.299Z,85.10
2019-03-17T07:33:58.732Z,85.20
2019-03-17T07:36:25.185Z,85.00
2019-03-17T07:38:53.171Z,85.20
2019-03-17T07:41:20.885Z,84.70
2019-03-17T07:43:47.321Z,83.90
2019-03-17T07:46:13.771Z,84.40
2019-03-17T07:48:40.259Z,83.60
2019-03-17T07:51:06.663Z,84.80
2019-03-17T07:53:33.110Z,84.00
2019-03-17T07:55:59.546Z,83.60
2019-03-17T07:58:26.007Z,83.00
2019-03-17T08:00:52.475Z,83.10
2019-03-17T08:03:18.985Z,82.80
2019-03-17T08:05:46.440Z,82.30
2019-03-17T08:08:12.908Z,82.10
2019-03-17T08:10:39.341Z,82.20
2019-03-17T08:13:05.781Z,81.80
2019-03-17T08:15:32.251Z,82.10
2019-03-17T08:17:58.710Z,80.70
2019-03-17T08:20:25.168Z,81.40
2019-03-17T08:22:51.655Z,80.90
2019-03-17T08:25:18.091Z,80.10
2019-03-17T08:27:44.667Z,79.70
2019-03-17T08:30:16.253Z,79.50
2019-03-17T08:32:42.794Z,79.50
2019-03-17T08:35:10.677Z,80.00
2019-03-17T08:37:37.127Z,79.20
2019-03-17T08:40:07.369Z,79.20
2019-03-17T08:42:33.828Z,78.40
2019-03-17T08:45:00.361Z,78.40
2019-03-17T08:47:26.819Z,78.30
2019-03-17T08:49:53.349Z,77.60
2019-03-17T08:52:19.931Z,76.90
2019-03-17T08:54:46.347Z,77.20
2019-03-17T08:57:12.767Z,76.00
2019-03-17T08:59:39.233Z,75.40
2019-03-17T09:02:06.707Z,75.50
2019-03-17T09:04:33.229Z,75.20
2019-03-17T09:06:59.839Z,75.20
2019-03-17T09:09:26.248Z,75.00
2019-03-17T09:11:52.692Z,74.70
2019-03-17T09:14:19.138Z,74.80
2019-03-17T09:16:45.592Z,73.50
2019-03-17T09:19:12.020Z,73.50
2019-03-17T09:21:38.492Z,73.10
2019-03-17T09:24:16.627Z,72.90
2019-03-17T09:26:33.182Z,72.60
2019-03-17T09:28:59.622Z,72.30
2019-03-17T09:31:26.093Z,72.10
2019-03-17T09:33:52.551Z,72.00
2019-03-17T09:36:19.009Z,71.60
2019-03-17T09:38:47.474Z,72.20
2019-03-17T09:41:13.852Z,72.60
2019-03-17T09:43:40.391Z,71.80
2019-03-17T09:46:06.811Z,72.20
2019-03-17T09:48:33.382Z,72.20
2019-03-17T09:50:59.821Z,71.80
2019-03-17T09:53:28.502Z,71.80
2019-03-17T09:55:54.521Z,71.70
2019-03-17T09:58:20.968Z,71.90
2019-03-17T10:00:47.427Z,71.60
2019-03-17T10:03:19.089Z,70.80
2019-03-17T10:05:51.702Z,70.90
2019-03-17T10:08:26.131Z,70.80
2019-03-17T10:10:58.682Z,70.60
2019-03-17T10:13:31.883Z,69.50
2019-03-17T10:16:07.246Z,68.40
2019-03-17T10:18:35.638Z,68.70
2019-03-17T10:21:02.096Z,66.10
2019-03-17T10:23:28.541Z,64.60
2019-03-17T10:25:54.990Z,64.10
2019-03-17T10:28:21.464Z,64.00
2019-03-17T10:30:47.932Z,61.80
2019-03-17T10:33:14.453Z,61.70
2019-03-17T10:35:41.262Z,61.70
2019-03-17T10:38:07.719Z,60.60
2019-03-17T10:40:34.158Z,63.10
2019-03-17T10:43:00.633Z,62.00
2019-03-17T10:45:27.081Z,62.60
2019-03-17T10:47:54.690Z,61.40
2019-03-17T10:50:21.392Z,61.60
2019-03-17T10:52:47.998Z,61.10
2019-03-17T10:55:16.284Z,62.70
2019-03-17T10:57:44.004Z,63.60
2019-03-17T11:00:18.868Z,63.30
2019-03-17T11:02:45.323Z,64.20
2019-03-17T11:05:15.486Z,63.30
2019-03-17T11:07:42.162Z,63.10
2019-03-17T11:10:10.400Z,62.80
2019-03-17T11:12:37.940Z,61.70
2019-03-17T11:15:15.204Z,62.00
2019-03-17T11:17:48.649Z,60.50
2019-03-17T11:20:15.732Z,60.20
2019-03-17T11:22:42.323Z,59.60
2019-03-17T11:25:13.967Z,58.70
2019-03-17T11:27:41.838Z,58.00
2019-03-17T11:30:14.458Z,56.40
2019-03-17T11:32:42.789Z,58.70
2019-03-17T11:35:10.376Z,58.60
2019-03-17T11:37:37.511Z,59.50
2019-03-17T11:40:11.160Z,59.30
2019-03-17T11:42:41.001Z,59.50
2019-03-17T11:45:21.266Z,59.70
2019-03-17T11:47:55.186Z,59.90
2019-03-17T11:53:27.964Z,60.60
2019-03-17T12:02:26.758Z,60.60
2019-03-17T12:08:08.642Z,61.00
2019-03-17T12:10:40.645Z,60.10
2019-03-17T12:13:14.391Z,59.60
2019-03-17T12:15:43.096Z,60.00
2019-03-17T12:18:09.899Z,59.00
2019-03-17T12:20:39.255Z,59.20
2019-03-17T12:23:05.990Z,58.60
2019-03-17T12:28:19.321Z,58.20
2019-03-17T12:30:46.140Z,58.90
2019-03-17T12:33:13.215Z,58.70
2019-03-17T12:35:40.257Z,59.00
2019-03-17T12:41:05.043Z,59.20
2019-03-17T12:43:31.707Z,58.40
2019-03-17T12:45:58.316Z,58.80
2019-03-17T12:48:26.018Z,59.30
2019-03-17T12:50:52.622Z,59.30
2019-03-17T12:53:25.480Z,60.00
2019-03-17T12:55:55.499Z,59.80
2019-03-17T12:58:26.704Z,59.40
2019-03-17T13:00:58.295Z,59.60
2019-03-17T13:03:40.232Z,59.80
2019-03-17T13:06:09.268Z,59.90
2019-03-17T13:08:36.854Z,60.00
2019-03-17T13:11:06.345Z,60.30
2019-03-17T13:13:44.639Z,60.30
2019-03-17T13:16:14.422Z,60.30
2019-03-17T13:18:42.704Z,59.70
2019-03-17T13:21:09.871Z,59.60
2019-03-17T13:23:41.980Z,58.30
2019-03-17T13:26:10.370Z,59.60
2019-03-17T13:28:39.788Z,59.30
2019-03-17T13:31:08.294Z,58.80
2019-03-17T13:33:35.335Z,57.70
2019-03-17T13:36:02.206Z,59.50
2019-03-17T13:38:30.069Z,59.40
2019-03-17T13:40:57.623Z,57.70
2019-03-17T13:43:24.967Z,58.90
2019-03-17T13:45:51.553Z,60.10
2019-03-17T13:48:19.980Z,59.70
2019-03-17T13:50:47.693Z,61.30
2019-03-17T13:53:16.406Z,62.60
2019-03-17T13:55:56.362Z,62.40
2019-03-17T13:58:25.686Z,63.10
2019-03-17T14:00:52.459Z,63.80
2019-03-17T14:03:19.041Z,64.80
2019-03-17T14:05:46.189Z,63.60
2019-03-17T14:08:12.785Z,63.80
2019-03-17T14:10:45.392Z,62.70
2019-03-17T14:13:21.099Z,64.00
2019-03-17T14:15:52.991Z,63.90
2019-03-17T14:18:19.710Z,64.50
2019-03-17T14:20:46.586Z,64.90
2019-03-17T14:23:13.333Z,65.50
2019-03-17T14:25:48.653Z,66.20
2019-03-17T14:28:15.754Z,66.60
2019-03-17T14:30:42.473Z,67.00
2019-03-17T14:35:58.350Z,67.90
2019-03-17T14:41:52.815Z,68.80
2019-03-17T14:44:24.734Z,69.00
2019-03-17T14:47:13.729Z,69.30
2019-03-17T14:58:54.575Z,70.50
2019-03-17T15:16:02.857Z,70.40
2019-03-17T15:18:39.608Z,70.20
2019-03-17T15:27:12.959Z,70.60
2019-03-17T15:29:42.443Z,68.90
2019-03-17T15:32:12.149Z,69.70
2019-03-17T15:34:41.380Z,68.80
2019-03-17T15:37:07.983Z,69.00
2019-03-17T15:39:34.563Z,68.30
2019-03-17T15:42:01.159Z,67.70
2019-03-17T15:44:27.754Z,69.90
2019-03-17T15:46:54.433Z,68.60
2019-03-17T15:49:23.217Z,70.40
2019-03-17T15:51:49.930Z,69.30
2019-03-17T15:54:16.567Z,68.90
2019-03-17T15:56:44.026Z,69.20
2019-03-17T15:59:10.455Z,69.10
2019-03-17T16:01:39.185Z,69.40
2019-03-17T16:04:08.789Z,69.10
2019-03-17T16:06:43.460Z,69.30
2019-03-17T16:09:10.084Z,69.50
2019-03-17T16:11:59.835Z,70.00
2019-03-17T16:23:43.376Z,71.00
2019-03-17T16:29:15.960Z,72.90
2019-03-17T16:31:42.562Z,72.40
2019-03-17T16:37:16.045Z,72.20
2019-03-17T16:39:42.698Z,72.40
2019-03-17T16:42:10.284Z,72.80
2019-03-17T16:44:37.561Z,73.30
2019-03-17T16:47:06.104Z,74.00
2019-03-17T16:49:39.793Z,73.40
2019-03-17T16:58:42.192Z,74.50
2019-03-17T17:01:24.563Z,74.60
2019-03-17T17:03:52.950Z,74.80
2019-03-17T17:06:25.788Z,74.60
2019-03-17T17:18:23.878Z,75.00
2019-03-17T17:23:50.789Z,75.10
2019-03-17T17:26:19.484Z,75.40
2019-03-17T17:40:27.649Z,75.20
2019-03-17T17:43:01.570Z,74.80
2019-03-17T18:07:08.747Z,73.90
2019-03-17T18:09:44.179Z,73.80
2019-03-17T18:15:44.822Z,74.30
2019-03-17T18:18:32.770Z,74.40
2019-03-17T18:36:00.312Z,76.50
2019-03-17T18:38:34.846Z,76.60
2019-03-17T18:41:04.016Z,76.90
2019-03-17T18:43:31.276Z,76.90
2019-03-17T18:46:01.718Z,77.10
2019-03-17T18:48:31.509Z,77.50
2019-03-17T18:51:12.676Z,77.50
2019-03-17T18:53:46.578Z,77.50
2019-03-17T18:56:14.762Z,77.30
2019-03-17T18:58:41.405Z,77.20
2019-03-17T19:01:09.988Z,77.30
2019-03-17T19:25:06.948Z,78.20
2019-03-17T19:45:38.669Z,78.60
2019-03-17T19:48:20.678Z,78.50
2019-03-17T20:00:16.641Z,77.30
2019-03-17T20:03:06.834Z,77.10
2019-03-17T20:24:25.113Z,74.20
2019-03-17T20:27:01.712Z,73.10
2019-03-17T21:10:39.151Z,77.60
2019-03-17T21:13:07.005Z,77.90
2019-03-17T21:15:38.006Z,77.80
2019-03-17T21:18:07.147Z,78.20
2019-03-17T21:20:35.935Z,78.50
2019-03-17T21:23:08.550Z,79.00
2019-03-17T21:25:51.571Z,79.00
2019-03-17T21:28:22.684Z,79.70
2019-03-17T21:30:54.730Z,79.90
2019-03-17T21:33:24.756Z,80.00
2019-03-17T21:35:54.828Z,80.00
2019-03-17T21:38:25.064Z,79.90
2019-03-17T21:41:06.167Z,80.50
2019-03-17T21:43:23.547Z,81.20
2019-03-17T21:45:51.730Z,80.60
2019-03-17T21:48:34.858Z,80.60
2019-03-17T21:51:02.827Z,81.60
2019-03-17T21:53:30.810Z,81.20
2019-03-17T21:56:00.838Z,81.10
2019-03-17T21:58:30.185Z,81.20
2019-03-17T22:00:58.755Z,80.90
2019-03-17T22:03:28.603Z,80.80
2019-03-17T22:05:56.302Z,81.20
2019-03-17T22:08:24.141Z,81.20
2019-03-17T22:10:50.988Z,81.70
2019-03-17T22:13:17.732Z,81.60
2019-03-17T22:15:44.282Z,82.00
2019-03-17T22:18:11.047Z,82.30
2019-03-17T22:20:37.908Z,82.70
2019-03-17T22:23:04.781Z,82.20
2019-03-17T22:25:31.516Z,82.20
2019-03-17T22:28:07.686Z,82.10
2019-03-17T22:30:27.610Z,82.70
2019-03-17T22:32:55.014Z,83.20
2019-03-17T22:35:22.006Z,83.80
2019-03-17T22:37:49.710Z,83.20
2019-03-17T22:40:17.370Z,83.20
2019-03-17T22:42:44.235Z,83.10
2019-03-17T22:45:12.207Z,83.60
2019-03-17T22:47:39.143Z,83.60
2019-03-17T22:50:10.781Z,84.40
2019-03-17T22:52:39.492Z,85.50
2019-03-17T22:55:07.359Z,85.30
2019-03-17T22:57:34.392Z,86.30
2019-03-17T23:00:01.142Z,86.00
2019-03-17T23:02:28.404Z,85.30
2019-03-17T23:04:55.047Z,85.80
2019-03-17T23:07:21.658Z,86.00
2019-03-17T23:09:48.129Z,86.20
2019-03-17T23:12:14.736Z,86.90
2019-03-17T23:14:41.369Z,87.50
2019-03-17T23:17:07.963Z,86.80
2019-03-17T23:19:36.210Z,87.50
2019-03-17T23:22:05.742Z,88.90
2019-03-17T23:24:34.202Z,87.80
2019-03-17T23:27:01.189Z,87.80
2019-03-17T23:29:28.765Z,88.20
2019-03-17T23:31:56.108Z,88.90
2019-03-17T23:34:22.953Z,88.30
2019-03-17T23:36:50.512Z,89.40
2019-03-17T23:39:18.258Z,90.00
2019-03-17T23:41:47.307Z,90.80
2019-03-17T23:44:13.928Z,91.70
2019-03-17T23:46:42.656Z,92.10
2019-03-17T23:49:11.111Z,92.70
2019-03-17T23:51:38.081Z,93.10
2019-03-17T23:54:08.039Z,93.50
2019-03-17T23:56:45.564Z,93.80
2019-03-17T23:59:13.101Z,94.20
